createdAt,value
2018-03-27T00:00:13.509Z,17.37
2018-03-27T00:02:41.178Z,16.77
2018-03-27T00:05:09.063Z,17.40
2018-03-27T00:07:36.542Z,16.10
2018-03-27T00:10:04.798Z,14.43
2018-03-27T00:12:32.354Z,17.43
2018-03-27T00:14:59.926Z,16.77
2018-03-27T00:17:28.228Z,15.80
2018-03-27T00:19:55.754Z,14.00
2018-03-27T00:22:24.030Z,16.27
2018-03-27T00:24:51.785Z,14.33
2018-03-27T00:27:24.770Z,12.70
2018-03-27T00:30:04.214Z,13.90
2018-03-27T00:32:43.761Z,14.80
2018-03-27T00:35:23.912Z,11.80
2018-03-27T00:38:03.347Z,14.60
2018-03-27T00:40:43.395Z,15.27
2018-03-27T00:43:13.738Z,15.57
2018-03-27T00:45:41.282Z,14.60
2018-03-27T00:48:09.553Z,14.30
2018-03-27T00:50:37.116Z,15.70
2018-03-27T00:53:04.739Z,17.00
2018-03-27T00:55:32.438Z,15.37
2018-03-27T00:58:00.008Z,16.37
2018-03-27T01:00:28.265Z,21.23
2018-03-27T01:02:55.825Z,15.53
2018-03-27T01:05:23.385Z,17.47
2018-03-27T01:07:50.963Z,19.30
2018-03-27T01:10:19.207Z,18.60
2018-03-27T01:12:46.985Z,17.70
2018-03-27T01:15:14.445Z,16.27
2018-03-27T01:17:41.969Z,14.87
2018-03-27T01:20:09.466Z,16.93
2018-03-27T01:22:37.693Z,16.23
2018-03-27T01:25:05.161Z,17.13
2018-03-27T01:27:33.265Z,18.93
2018-03-27T01:30:00.858Z,13.87
2018-03-27T01:32:28.342Z,19.40
2018-03-27T01:34:55.806Z,18.70
2018-03-27T01:37:23.299Z,17.07
2018-03-27T01:39:51.058Z,18.63
2018-03-27T01:42:18.630Z,16.90
2018-03-27T01:44:46.945Z,16.67
2018-03-27T01:47:14.410Z,19.83
2018-03-27T01:49:41.901Z,17.40
2018-03-27T01:52:09.506Z,21.30
2018-03-27T01:54:37.699Z,24.03
2018-03-27T01:57:05.171Z,24.03
2018-03-27T01:59:32.647Z,26.97
2018-03-27T02:02:00.205Z,24.37
2018-03-27T02:04:27.718Z,28.07
2018-03-27T02:06:55.642Z,27.67
2018-03-27T02:09:23.211Z,22.07
2018-03-27T02:11:57.318Z,25.53
2018-03-27T02:14:31.646Z,26.07
2018-03-27T02:17:05.541Z,24.43
2018-03-27T02:19:38.809Z,22.33
2018-03-27T02:22:05.822Z,24.37
2018-03-27T02:24:33.347Z,23.90
2018-03-27T02:27:01.957Z,21.80
2018-03-27T02:29:30.166Z,26.47
2018-03-27T02:31:57.642Z,27.30
2018-03-27T02:34:25.662Z,23.50
2018-03-27T02:36:53.129Z,26.23
2018-03-27T02:39:20.613Z,24.97
2018-03-27T02:41:48.082Z,24.67
2018-03-27T02:44:15.695Z,25.13
2018-03-27T02:46:43.213Z,22.77
2018-03-27T02:49:10.678Z,20.50
2018-03-27T02:51:38.909Z,23.10
2018-03-27T02:54:06.470Z,21.93
2018-03-27T02:56:33.932Z,26.63
2018-03-27T02:59:01.397Z,28.33
2018-03-27T03:01:28.870Z,24.50
2018-03-27T03:03:56.543Z,29.07
2018-03-27T03:06:24.807Z,25.67
2018-03-27T03:08:52.274Z,24.63
2018-03-27T03:11:20.506Z,25.27
2018-03-27T03:13:47.966Z,25.00
2018-03-27T03:16:15.433Z,24.33
2018-03-27T03:18:42.901Z,26.80
2018-03-27T03:21:10.402Z,27.40
2018-03-27T03:23:37.929Z,28.43
2018-03-27T03:26:05.395Z,27.13
2018-03-27T03:28:33.664Z,24.33
2018-03-27T03:31:01.222Z,28.03
2018-03-27T03:33:28.685Z,27.30
2018-03-27T03:35:56.923Z,25.10
2018-03-27T03:38:24.397Z,27.57
2018-03-27T03:40:52.058Z,27.37
2018-03-27T03:43:19.530Z,24.30
2018-03-27T03:45:47.764Z,29.60
2018-03-27T03:48:15.263Z,37.40
2018-03-27T03:50:43.083Z,31.43
2018-03-27T03:53:10.595Z,28.27
2018-03-27T03:55:39.174Z,27.80
2018-03-27T03:58:07.419Z,30.03
2018-03-27T04:00:34.886Z,29.10
2018-03-27T04:03:02.354Z,27.23
2018-03-27T04:05:29.881Z,32.73
2018-03-27T04:07:57.353Z,33.43
2018-03-27T04:10:25.044Z,28.97
2018-03-27T04:12:53.368Z,35.47
2018-03-27T04:15:20.870Z,33.07
2018-03-27T04:17:48.946Z,31.13
2018-03-27T04:20:17.249Z,33.07
2018-03-27T04:22:45.130Z,34.60
2018-03-27T04:27:47.006Z,34.10
2018-03-27T04:30:14.473Z,34.43
2018-03-27T04:32:41.948Z,35.27
2018-03-27T04:35:09.436Z,39.47
2018-03-27T04:37:36.912Z,39.27
2018-03-27T04:40:05.146Z,37.93
2018-03-27T04:42:32.614Z,42.07
2018-03-27T04:45:00.082Z,39.27
2018-03-27T04:47:27.558Z,36.90
2018-03-27T04:49:55.815Z,34.43
2018-03-27T04:52:24.101Z,36.00
2018-03-27T04:54:51.522Z,38.30
2018-03-27T04:57:18.995Z,39.00
2018-03-27T04:59:46.518Z,40.43
2018-03-27T05:02:13.990Z,43.47
2018-03-27T05:04:41.463Z,37.07
2018-03-27T05:07:08.972Z,35.63
2018-03-27T05:09:37.199Z,39.13
2018-03-27T05:12:05.630Z,39.73
2018-03-27T05:14:33.059Z,39.57
2018-03-27T05:17:01.328Z,36.67
2018-03-27T05:19:29.571Z,37.17
2018-03-27T05:21:57.055Z,37.73
2018-03-27T05:24:24.521Z,37.63
2018-03-27T05:26:52.048Z,36.33
2018-03-27T05:29:19.514Z,37.67
2018-03-27T05:31:46.981Z,40.63
2018-03-27T05:34:14.444Z,36.93
2018-03-27T05:36:41.929Z,39.00
2018-03-27T05:39:09.439Z,32.23
2018-03-27T05:41:36.928Z,37.53
2018-03-27T05:44:05.204Z,38.17
2018-03-27T05:46:33.441Z,36.87
2018-03-27T05:49:00.921Z,35.93
2018-03-27T05:51:28.562Z,41.27
2018-03-27T05:53:56.038Z,40.77
2018-03-27T05:56:24.539Z,43.60
2018-03-27T05:58:52.813Z,39.63
2018-03-27T06:01:21.071Z,39.17
2018-03-27T06:03:48.541Z,43.63
2018-03-27T06:06:16.802Z,42.10
2018-03-27T06:08:44.276Z,40.13
2018-03-27T06:11:12.608Z,41.07
2018-03-27T06:13:40.170Z,43.37
2018-03-27T06:16:07.684Z,46.50
2018-03-27T06:18:36.164Z,40.27
2018-03-27T06:21:03.715Z,38.10
2018-03-27T06:23:32.043Z,39.93
2018-03-27T06:25:59.555Z,37.93
2018-03-27T06:28:27.021Z,36.40
2018-03-27T06:30:54.554Z,37.10
2018-03-27T06:33:22.118Z,39.03
2018-03-27T06:35:49.925Z,37.43
2018-03-27T06:38:17.650Z,40.90
2018-03-27T06:40:46.021Z,40.60
2018-03-27T06:43:13.558Z,44.10
2018-03-27T06:45:41.026Z,42.67
2018-03-27T06:48:08.493Z,48.07
2018-03-27T06:50:36.048Z,45.63
2018-03-27T06:53:03.627Z,44.77
2018-03-27T06:55:32.096Z,54.57
2018-03-27T06:58:00.383Z,45.50
2018-03-27T07:00:28.659Z,45.33
2018-03-27T07:02:56.961Z,43.10
2018-03-27T07:05:24.540Z,49.33
2018-03-27T07:07:51.909Z,47.30
2018-03-27T07:10:19.407Z,49.40
2018-03-27T07:12:47.686Z,45.87
2018-03-27T07:15:16.317Z,53.40
2018-03-27T07:17:43.823Z,49.77
2018-03-27T07:20:12.086Z,49.17
2018-03-27T07:22:39.562Z,54.67
2018-03-27T07:25:07.826Z,50.93
2018-03-27T07:27:36.090Z,54.53
2018-03-27T07:30:03.571Z,58.43
2018-03-27T07:32:32.101Z,55.57
2018-03-27T07:34:59.732Z,57.87
2018-03-27T07:37:27.261Z,60.40
2018-03-27T07:39:54.821Z,61.27
2018-03-27T07:42:23.097Z,58.73
2018-03-27T07:44:51.378Z,58.07
2018-03-27T07:47:19.658Z,62.47
2018-03-27T07:49:48.132Z,56.93
2018-03-27T07:52:16.366Z,58.93
2018-03-27T07:54:43.859Z,56.73
2018-03-27T07:57:12.094Z,55.83
2018-03-27T07:59:39.650Z,61.37
2018-03-27T08:02:07.149Z,55.03
2018-03-27T08:04:34.745Z,61.07
2018-03-27T08:07:02.279Z,54.67
2018-03-27T08:09:30.509Z,59.00
2018-03-27T08:11:58.124Z,61.07
2018-03-27T08:14:26.189Z,56.10
2018-03-27T08:16:54.446Z,57.67
2018-03-27T08:19:22.065Z,59.40
2018-03-27T08:21:49.570Z,65.27
2018-03-27T08:24:18.110Z,61.07
2018-03-27T08:26:45.606Z,68.30
2018-03-27T08:29:13.070Z,62.90
2018-03-27T08:31:41.310Z,57.80
2018-03-27T08:34:09.602Z,63.33
2018-03-27T08:36:37.069Z,67.27
2018-03-27T08:39:06.273Z,66.17
2018-03-27T08:41:34.518Z,70.83
2018-03-27T08:44:01.985Z,68.10
2018-03-27T08:46:29.865Z,71.30
2018-03-27T08:48:57.351Z,71.57
2018-03-27T08:51:24.826Z,69.27
2018-03-27T08:53:52.303Z,73.93
2018-03-27T08:56:20.202Z,71.57
2018-03-27T08:58:47.767Z,74.67
2018-03-27T09:01:16.001Z,75.03
2018-03-27T09:03:43.481Z,76.43
2018-03-27T09:06:11.510Z,70.63
2018-03-27T09:08:39.361Z,73.47
2018-03-27T09:11:06.837Z,67.77
2018-03-27T09:13:34.309Z,70.30
2018-03-27T09:16:01.802Z,66.60
2018-03-27T09:18:29.422Z,73.77
2018-03-27T09:20:56.908Z,74.90
2018-03-27T09:23:24.696Z,70.77
2018-03-27T09:25:53.152Z,71.70
2018-03-27T09:28:20.626Z,64.13
2018-03-27T09:30:48.862Z,66.00
2018-03-27T09:33:16.325Z,63.97
2018-03-27T09:35:43.974Z,61.60
2018-03-27T09:38:11.446Z,63.17
2018-03-27T09:40:38.916Z,54.30
2018-03-27T09:43:06.446Z,54.63
2018-03-27T09:45:33.977Z,50.53
2018-03-27T09:48:01.520Z,51.73
2018-03-27T09:50:29.758Z,54.37
2018-03-27T09:52:57.542Z,53.50
2018-03-27T09:55:25.032Z,48.23
2018-03-27T09:57:52.506Z,55.40
2018-03-27T10:00:25.865Z,47.23
2018-03-27T10:02:54.098Z,49.37
2018-03-27T10:05:21.590Z,55.80
2018-03-27T10:07:49.958Z,47.40
2018-03-27T10:10:17.434Z,48.20
2018-03-27T10:12:46.207Z,48.23
2018-03-27T10:15:13.673Z,51.60
2018-03-27T10:17:41.908Z,46.73
2018-03-27T10:20:09.370Z,43.83
2018-03-27T10:22:36.957Z,45.60
2018-03-27T10:25:04.726Z,47.13
2018-03-27T10:27:32.968Z,43.00
2018-03-27T10:30:00.638Z,43.23
2018-03-27T10:32:28.635Z,42.93
2018-03-27T10:34:56.868Z,46.80
2018-03-27T10:37:24.338Z,40.43
2018-03-27T10:39:51.862Z,41.70
2018-03-27T10:42:19.673Z,42.87
2018-03-27T10:44:47.541Z,45.30
2018-03-27T10:47:15.014Z,36.80
2018-03-27T10:49:43.253Z,38.63
2018-03-27T10:52:10.737Z,33.77
2018-03-27T10:54:38.206Z,14.63
2018-03-27T10:57:06.477Z,23.27
2018-03-27T10:59:34.718Z,33.73
2018-03-27T11:02:02.206Z,33.30
2018-03-27T11:04:30.461Z,37.43
2018-03-27T11:06:58.587Z,32.93
2018-03-27T11:09:26.113Z,31.77
2018-03-27T11:11:54.389Z,29.27
2018-03-27T11:14:23.000Z,31.93
2018-03-27T11:16:50.517Z,32.00
2018-03-27T11:19:17.992Z,29.47
2018-03-27T11:21:46.234Z,31.33
2018-03-27T11:24:13.702Z,29.47
2018-03-27T11:26:41.291Z,31.33
2018-03-27T11:29:09.727Z,28.50
2018-03-27T11:31:37.174Z,33.83
2018-03-27T11:34:04.651Z,29.70
2018-03-27T11:36:32.125Z,31.27
2018-03-27T11:38:59.620Z,28.00
2018-03-27T11:41:27.215Z,30.03
2018-03-27T11:43:54.702Z,33.97
2018-03-27T11:46:22.950Z,34.33
2018-03-27T11:48:50.434Z,34.90
2018-03-27T11:51:18.000Z,32.43
2018-03-27T11:53:46.316Z,33.20
2018-03-27T11:56:13.814Z,31.07
2018-03-27T11:58:41.290Z,35.20
2018-03-27T12:01:09.534Z,32.27
2018-03-27T12:03:37.018Z,34.43
2018-03-27T12:06:05.359Z,34.43
2018-03-27T12:08:34.529Z,35.23
2018-03-27T12:11:02.003Z,35.10
2018-03-27T12:13:29.730Z,35.30
2018-03-27T12:15:57.989Z,34.13
2018-03-27T12:18:26.301Z,31.27
2018-03-27T12:20:53.777Z,35.40
2018-03-27T12:23:21.281Z,35.07
2018-03-27T12:25:49.657Z,35.20
2018-03-27T12:28:17.894Z,36.17
2018-03-27T12:30:45.374Z,36.93
2018-03-27T12:33:12.851Z,38.23
2018-03-27T12:35:41.127Z,37.03
2018-03-27T12:38:09.437Z,39.90
2018-03-27T12:40:36.899Z,39.70
2018-03-27T12:43:04.374Z,37.03
2018-03-27T12:45:31.869Z,36.93
2018-03-27T12:47:59.594Z,35.90
2018-03-27T12:50:27.078Z,40.13
2018-03-27T12:52:54.563Z,37.47
2018-03-27T12:55:22.830Z,38.50
2018-03-27T12:57:51.111Z,37.07
2018-03-27T13:00:19.425Z,40.63
2018-03-27T13:02:46.906Z,37.90
2018-03-27T13:05:14.415Z,40.23
2018-03-27T13:07:42.658Z,36.13
2018-03-27T13:10:10.130Z,36.37
2018-03-27T13:12:38.429Z,35.73
2018-03-27T13:15:05.916Z,35.77
2018-03-27T13:17:33.400Z,38.87
2018-03-27T13:20:00.874Z,37.77
2018-03-27T13:22:28.360Z,39.13
2018-03-27T13:24:56.093Z,41.40
2018-03-27T13:27:23.654Z,43.40
2018-03-27T13:29:51.254Z,42.23
2018-03-27T13:32:18.854Z,37.83
2018-03-27T13:34:47.193Z,37.27
2018-03-27T13:37:14.665Z,39.17
2018-03-27T13:39:42.138Z,40.17
2018-03-27T13:42:09.605Z,36.37
2018-03-27T13:44:37.187Z,37.93
2018-03-27T13:47:05.429Z,37.67
2018-03-27T13:49:33.747Z,37.73
2018-03-27T13:52:02.331Z,32.00
2018-03-27T13:54:30.566Z,38.47
2018-03-27T13:56:58.067Z,34.57
2018-03-27T13:59:26.302Z,38.50
2018-03-27T14:01:53.769Z,34.37
2018-03-27T14:04:21.279Z,33.67
2018-03-27T14:06:48.814Z,35.63
2018-03-27T14:09:17.093Z,34.03
2018-03-27T14:11:45.353Z,35.23
2018-03-27T14:14:12.927Z,38.50
2018-03-27T14:16:41.189Z,34.23
2018-03-27T14:19:08.752Z,35.57
2018-03-27T14:21:37.127Z,37.63
2018-03-27T14:24:04.601Z,35.87
2018-03-27T14:26:32.842Z,37.27
2018-03-27T14:29:00.307Z,37.60
2018-03-27T14:31:27.821Z,40.67
2018-03-27T14:33:55.336Z,39.47
2018-03-27T14:36:23.569Z,44.50
2018-03-27T14:38:51.052Z,44.83
2018-03-27T14:41:18.725Z,52.57
2018-03-27T14:43:46.186Z,51.67
2018-03-27T14:46:14.431Z,58.47
2018-03-27T14:48:41.898Z,56.57
2018-03-27T14:51:09.514Z,58.30
2018-03-27T14:53:36.979Z,52.90
2018-03-27T14:56:04.793Z,52.30
2018-03-27T14:58:32.268Z,62.23
2018-03-27T15:01:00.505Z,57.20
2018-03-27T15:03:28.090Z,62.87
2018-03-27T15:05:55.561Z,58.00
2018-03-27T15:08:24.039Z,49.17
2018-03-27T15:10:52.301Z,53.63
2018-03-27T15:13:20.106Z,54.73
2018-03-27T15:15:48.135Z,54.17
2018-03-27T15:18:15.786Z,49.20
2018-03-27T15:20:43.358Z,55.50
2018-03-27T15:23:11.597Z,52.03
2018-03-27T15:25:39.066Z,55.37
2018-03-27T15:28:06.538Z,56.47
2018-03-27T15:30:34.028Z,54.07
2018-03-27T15:33:01.877Z,52.00
2018-03-27T15:35:30.346Z,57.67
2018-03-27T15:37:58.017Z,54.77
2018-03-27T15:40:25.682Z,52.80
2018-03-27T15:42:53.217Z,49.80
2018-03-27T15:45:20.685Z,48.13
2018-03-27T15:47:48.248Z,47.37
2018-03-27T15:50:15.731Z,48.70
2018-03-27T15:52:44.198Z,49.10
2018-03-27T15:55:11.758Z,51.33
2018-03-27T15:57:40.104Z,53.50
2018-03-27T16:00:07.691Z,47.03
2018-03-27T16:02:35.162Z,49.83
2018-03-27T16:05:03.403Z,52.27
2018-03-27T16:07:31.192Z,51.30
2018-03-27T16:09:59.517Z,50.33
2018-03-27T16:12:27.497Z,51.13
2018-03-27T16:14:55.353Z,48.40
2018-03-27T16:17:22.980Z,53.60
2018-03-27T16:19:51.240Z,52.17
2018-03-27T16:22:18.899Z,51.87
2018-03-27T16:24:46.361Z,50.33
2018-03-27T16:27:14.654Z,56.77
2018-03-27T16:29:42.874Z,50.37
2018-03-27T16:32:10.382Z,55.17
2018-03-27T16:34:38.622Z,69.93
2018-03-27T16:37:06.133Z,46.43
2018-03-27T16:39:33.610Z,48.23
2018-03-27T16:42:01.078Z,45.93
2018-03-27T16:44:28.787Z,50.27
2018-03-27T16:46:57.018Z,54.20
2018-03-27T16:49:24.486Z,52.73
2018-03-27T16:51:51.957Z,52.33
2018-03-27T16:54:19.450Z,48.70
2018-03-27T16:56:47.901Z,52.87
2018-03-27T16:59:15.470Z,53.30
2018-03-27T17:01:43.993Z,47.27
2018-03-27T17:04:12.211Z,51.47
2018-03-27T17:06:39.680Z,51.37
2018-03-27T17:09:07.928Z,51.93
2018-03-27T17:11:35.407Z,49.87
2018-03-27T17:14:02.914Z,50.50
2018-03-27T17:16:30.425Z,45.07
2018-03-27T17:18:58.189Z,48.70
2018-03-27T17:21:25.759Z,52.43
2018-03-27T17:23:53.990Z,47.53
2018-03-27T17:26:21.465Z,51.50
2018-03-27T17:28:48.947Z,52.90
2018-03-27T17:31:17.282Z,43.60
2018-03-27T17:33:44.767Z,47.83
2018-03-27T17:36:12.650Z,50.30
2018-03-27T17:38:40.920Z,51.97
2018-03-27T17:41:08.478Z,49.83
2018-03-27T17:43:35.951Z,48.00
2018-03-27T17:46:04.181Z,50.53
2018-03-27T17:48:31.706Z,57.43
2018-03-27T17:50:59.228Z,50.43
2018-03-27T17:53:27.605Z,52.00
2018-03-27T17:55:55.176Z,50.03
2018-03-27T17:58:23.415Z,49.97
2018-03-27T18:00:51.407Z,46.43
2018-03-27T18:03:18.883Z,52.17
2018-03-27T18:05:47.120Z,54.10
2018-03-27T18:08:14.589Z,52.30
2018-03-27T18:10:42.081Z,52.67
2018-03-27T18:13:09.556Z,48.17
2018-03-27T18:15:37.021Z,53.13
2018-03-27T18:18:04.730Z,52.17
2018-03-27T18:20:32.206Z,47.90
2018-03-27T18:23:00.533Z,45.90
2018-03-27T18:25:28.063Z,45.03
2018-03-27T18:27:55.637Z,49.53
2018-03-27T18:30:24.023Z,43.57
2018-03-27T18:32:51.830Z,44.13
2018-03-27T18:35:19.394Z,49.17
2018-03-27T18:37:47.682Z,43.47
2018-03-27T18:40:15.933Z,39.77
2018-03-27T18:42:43.455Z,46.17
2018-03-27T18:45:11.116Z,45.30
2018-03-27T18:47:38.750Z,48.00
2018-03-27T18:50:06.286Z,44.57
2018-03-27T18:52:34.783Z,46.27
2018-03-27T18:55:02.278Z,45.53
2018-03-27T18:57:29.766Z,48.33
2018-03-27T18:59:57.583Z,46.03
2018-03-27T19:02:25.061Z,47.83
2018-03-27T19:04:52.571Z,42.67
2018-03-27T19:07:20.861Z,43.93
2018-03-27T19:09:48.342Z,41.80
2018-03-27T19:12:15.855Z,42.10
2018-03-27T19:14:43.653Z,39.97
2018-03-27T19:17:11.179Z,38.90
2018-03-27T19:19:39.935Z,38.93
2018-03-27T19:22:07.532Z,40.37
2018-03-27T19:24:35.833Z,41.73
2018-03-27T19:27:04.054Z,40.90
2018-03-27T19:29:31.530Z,40.87
2018-03-27T19:31:59.189Z,44.50
2018-03-27T19:34:26.796Z,41.23
2018-03-27T19:36:54.453Z,53.83
2018-03-27T19:39:21.973Z,48.50
2018-03-27T19:41:49.746Z,44.97
2018-03-27T19:44:18.109Z,41.37
2018-03-27T19:46:45.592Z,39.73
2018-03-27T19:49:14.157Z,40.23
2018-03-27T19:51:41.718Z,39.23
2018-03-27T19:54:10.104Z,37.90
2018-03-27T19:56:38.477Z,39.90
2018-03-27T19:59:06.746Z,39.20
2018-03-27T20:01:34.205Z,37.57
2018-03-27T20:04:01.682Z,40.97
2018-03-27T20:06:30.147Z,37.23
2018-03-27T20:08:58.118Z,35.00
2018-03-27T20:11:26.447Z,33.17
2018-03-27T20:13:54.457Z,37.60
2018-03-27T20:16:22.023Z,35.43
2018-03-27T20:18:49.602Z,29.00
2018-03-27T20:21:17.859Z,32.97
2018-03-27T20:23:46.950Z,29.33
2018-03-27T20:26:14.443Z,31.13
2018-03-27T20:28:42.175Z,31.93
2018-03-27T20:31:10.578Z,29.20
2018-03-27T20:33:38.213Z,30.87
2018-03-27T20:36:05.974Z,32.37
2018-03-27T20:38:34.253Z,27.73
2018-03-27T20:41:01.734Z,28.47
2018-03-27T20:43:29.966Z,26.37
2018-03-27T20:45:57.454Z,31.47
2018-03-27T20:48:25.730Z,27.67
2018-03-27T20:50:54.001Z,29.20
2018-03-27T20:53:22.479Z,28.50
2018-03-27T20:55:50.039Z,24.63
2018-03-27T20:58:18.513Z,25.90
2018-03-27T21:00:46.082Z,22.67
2018-03-27T21:03:14.324Z,26.50
2018-03-27T21:05:42.014Z,27.23
2018-03-27T21:08:09.490Z,25.60
2018-03-27T21:10:37.749Z,22.27
2018-03-27T21:13:05.522Z,25.93
2018-03-27T21:15:33.082Z,20.50
2018-03-27T21:18:00.794Z,20.50
2018-03-27T21:20:28.306Z,23.20
2018-03-27T21:22:56.578Z,27.23
2018-03-27T21:25:24.279Z,21.53
2018-03-27T21:27:51.995Z,20.80
2018-03-27T21:30:19.671Z,22.73
2018-03-27T21:32:47.938Z,21.27
2018-03-27T21:35:15.598Z,20.30
2018-03-27T21:37:43.263Z,18.87
2018-03-27T21:40:11.596Z,20.70
2018-03-27T21:42:39.527Z,20.23
2018-03-27T21:45:07.889Z,21.87
2018-03-27T21:47:36.350Z,22.43
2018-03-27T21:50:04.140Z,29.00
2018-03-27T21:52:32.611Z,22.77
2018-03-27T21:55:00.793Z,23.37
2018-03-27T21:57:29.253Z,21.23
2018-03-27T21:59:56.775Z,22.07
2018-03-27T22:02:24.290Z,25.97
2018-03-27T22:04:52.046Z,19.83
2018-03-27T22:07:19.710Z,23.30
2018-03-27T22:09:47.474Z,20.37
2018-03-27T22:12:15.141Z,21.03
2018-03-27T22:14:42.710Z,23.30
2018-03-27T22:17:11.281Z,23.03
2018-03-27T22:19:38.846Z,19.67
2018-03-27T22:22:06.705Z,23.50
2018-03-27T22:24:34.274Z,21.70
2018-03-27T22:27:01.829Z,23.07
2018-03-27T22:29:29.543Z,26.77
2018-03-27T22:31:57.094Z,25.70
2018-03-27T22:34:24.831Z,25.93
2018-03-27T22:36:53.099Z,24.90
2018-03-27T22:39:20.665Z,28.53
2018-03-27T22:41:48.934Z,27.10
2018-03-27T22:44:16.596Z,23.90
2018-03-27T22:46:44.163Z,25.77
2018-03-27T22:49:12.426Z,27.63
2018-03-27T22:51:39.990Z,25.67
2018-03-27T22:54:07.549Z,21.33
2018-03-27T22:56:35.941Z,26.10
2018-03-27T22:59:04.879Z,23.67
2018-03-27T23:01:32.689Z,25.10
2018-03-27T23:04:00.253Z,23.33
2018-03-27T23:06:28.023Z,23.90
2018-03-27T23:08:56.337Z,23.50
2018-03-27T23:11:23.950Z,28.43
2018-03-27T23:13:52.533Z,25.23
2018-03-27T23:16:20.103Z,27.47
2018-03-27T23:18:48.489Z,23.60
2018-03-27T23:21:16.778Z,26.20
2018-03-27T23:23:45.142Z,28.33
2018-03-27T23:26:13.518Z,29.30
2018-03-27T23:28:41.750Z,26.70
2018-03-27T23:31:09.609Z,26.37
2018-03-27T23:33:37.079Z,28.80
2018-03-27T23:36:04.545Z,26.43
2018-03-27T23:38:32.846Z,18.93
2018-03-27T23:41:00.309Z,20.70
2018-03-27T23:43:29.703Z,25.53
2018-03-27T23:45:57.337Z,30.50
2018-03-27T23:48:25.517Z,28.47
2018-03-27T23:50:53.151Z,28.70
2018-03-27T23:53:20.626Z,29.63
2018-03-27T23:55:48.186Z,31.67
2018-03-27T23:58:16.450Z,30.43
